sensor_id;sensor_type;location;lat;lon;timestamp;temperature;humidity
59041;DHT22;44825;53.200;6.448;2022-08-03T00:01:06;19.90;99.90
59041;DHT22;44825;53.200;6.448;2022-08-03T00:03:33;19.90;99.90
59041;DHT22;44825;53.200;6.448;2022-08-03T00:06:01;19.90;99.90
59041;DHT22;44825;53.200;6.448;2022-08-03T00:08:29;19.90;99.90
59041;DHT22;44825;53.200;6.448;2022-08-03T00:10:57;19.80;99.90
59041;DHT22;44825;53.200;6.448;2022-08-03T00:13:24;19.90;99.90
59041;DHT22;44825;53.200;6.448;2022-08-03T00:15:51;19.90;99.90
59041;DHT22;44825;53.200;6.448;2022-08-03T00:18:19;19.80;99.90
59041;DHT22;44825;53.200;6.448;2022-08-03T00:20:46;19.90;99.90
59041;DHT22;44825;53.200;6.448;2022-08-03T00:23:14;19.90;99.90
59041;DHT22;44825;53.200;6.448;2022-08-03T00:25:42;19.80;99.90
59041;DHT22;44825;53.200;6.448;2022-08-03T00:28:10;19.80;99.90
59041;DHT22;44825;53.200;6.448;2022-08-03T00:30:37;19.80;99.90
59041;DHT22;44825;53.200;6.448;2022-08-03T00:33:05;19.80;99.90
59041;DHT22;44825;53.200;6.448;2022-08-03T00:35:32;19.80;99.90
59041;DHT22;44825;53.200;6.448;2022-08-03T00:37:59;19.80;99.90
59041;DHT22;44825;53.200;6.448;2022-08-03T00:40:27;19.80;99.90
59041;DHT22;44825;53.200;6.448;2022-08-03T00:42:57;19.80;99.90
59041;DHT22;44825;53.200;6.448;2022-08-03T00:45:27;19.80;99.90
59041;DHT22;44825;53.200;6.448;2022-08-03T00:47:55;19.80;99.90
59041;DHT22;44825;53.200;6.448;2022-08-03T00:50:24;19.80;99.90
59041;DHT22;44825;53.200;6.448;2022-08-03T00:52:53;19.70;99.90
59041;DHT22;44825;53.200;6.448;2022-08-03T00:55:23;19.70;99.90
59041;DHT22;44825;53.200;6.448;2022-08-03T00:57:51;19.70;99.90
59041;DHT22;44825;53.200;6.448;2022-08-03T01:00:21;19.70;99.90
59041;DHT22;44825;53.200;6.448;2022-08-03T01:02:49;19.70;99.90
59041;DHT22;44825;53.200;6.448;2022-08-03T01:05:17;19.70;99.90
59041;DHT22;44825;53.200;6.448;2022-08-03T01:07:54;19.70;99.90
59041;DHT22;44825;53.200;6.448;2022-08-03T01:10:31;19.70;99.90
59041;DHT22;44825;53.200;6.448;2022-08-03T01:13:02;19.70;99.90
59041;DHT22;44825;53.200;6.448;2022-08-03T01:15:35;19.70;99.90
59041;DHT22;44825;53.200;6.448;2022-08-03T01:18:08;19.70;99.90
59041;DHT22;44825;53.200;6.448;2022-08-03T01:20:41;19.70;99.90
59041;DHT22;44825;53.200;6.448;2022-08-03T01:23:21;19.60;99.90
59041;DHT22;44825;53.200;6.448;2022-08-03T01:26:08;19.70;99.90
59041;DHT22;44825;53.200;6.448;2022-08-03T01:28:51;19.60;99.90
59041;DHT22;44825;53.200;6.448;2022-08-03T01:31:27;19.60;99.90
59041;DHT22;44825;53.200;6.448;2022-08-03T01:33:58;19.60;99.90
59041;DHT22;44825;53.200;6.448;2022-08-03T01:36:31;19.60;99.90
59041;DHT22;44825;53.200;6.448;2022-08-03T01:39:02;19.60;99.90
59041;DHT22;44825;53.200;6.448;2022-08-03T01:41:32;19.60;99.90
59041;DHT22;44825;53.200;6.448;2022-08-03T01:44:00;19.60;99.90
59041;DHT22;44825;53.200;6.448;2022-08-03T01:46:31;19.60;99.90
59041;DHT22;44825;53.200;6.448;2022-08-03T01:49:00;19.60;99.90
59041;DHT22;44825;53.200;6.448;2022-08-03T01:51:27;19.60;99.90
59041;DHT22;44825;53.200;6.448;2022-08-03T01:53:56;19.60;99.90
59041;DHT22;44825;53.200;6.448;2022-08-03T01:56:25;19.60;99.90
59041;DHT22;44825;53.200;6.448;2022-08-03T01:58:54;19.60;99.90
59041;DHT22;44825;53.200;6.448;2022-08-03T02:01:24;19.50;99.90
59041;DHT22;44825;53.200;6.448;2022-08-03T02:03:54;19.50;99.90
59041;DHT22;44825;53.200;6.448;2022-08-03T02:06:24;19.50;99.90
59041;DHT22;44825;53.200;6.448;2022-08-03T02:08:53;19.50;99.90
59041;DHT22;44825;53.200;6.448;2022-08-03T02:11:21;19.50;99.90
59041;DHT22;44825;53.200;6.448;2022-08-03T02:13:50;19.50;99.90
59041;DHT22;44825;53.200;6.448;2022-08-03T02:16:18;19.50;99.90
59041;DHT22;44825;53.200;6.448;2022-08-03T02:18:48;19.50;99.90
59041;DHT22;44825;53.200;6.448;2022-08-03T02:21:17;19.50;99.90
59041;DHT22;44825;53.200;6.448;2022-08-03T02:23:45;19.40;99.90
59041;DHT22;44825;53.200;6.448;2022-08-03T02:26:15;19.40;99.90
59041;DHT22;44825;53.200;6.448;2022-08-03T02:28:46;19.40;99.90
59041;DHT22;44825;53.200;6.448;2022-08-03T02:31:18;19.40;99.90
59041;DHT22;44825;53.200;6.448;2022-08-03T02:33:48;19.40;99.90
59041;DHT22;44825;53.200;6.448;2022-08-03T02:36:19;19.40;99.90
59041;DHT22;44825;53.200;6.448;2022-08-03T02:38:52;19.40;99.90
59041;DHT22;44825;53.200;6.448;2022-08-03T02:41:28;19.40;99.90
59041;DHT22;44825;53.200;6.448;2022-08-03T02:43:58;19.40;99.90
59041;DHT22;44825;53.200;6.448;2022-08-03T02:46:30;19.30;99.90
59041;DHT22;44825;53.200;6.448;2022-08-03T02:49:00;19.40;99.90
59041;DHT22;44825;53.200;6.448;2022-08-03T02:51:32;19.40;99.90
59041;DHT22;44825;53.200;6.448;2022-08-03T02:54:01;19.30;99.90
59041;DHT22;44825;53.200;6.448;2022-08-03T02:56:29;19.30;99.90
59041;DHT22;44825;53.200;6.448;2022-08-03T02:58:58;19.30;99.90
59041;DHT22;44825;53.200;6.448;2022-08-03T03:01:27;19.30;99.90
59041;DHT22;44825;53.200;6.448;2022-08-03T03:03:55;19.30;99.90
59041;DHT22;44825;53.200;6.448;2022-08-03T03:06:24;19.30;99.90
59041;DHT22;44825;53.200;6.448;2022-08-03T03:08:55;19.30;99.90
59041;DHT22;44825;53.200;6.448;2022-08-03T03:11:24;19.30;99.90
59041;DHT22;44825;53.200;6.448;2022-08-03T03:13:52;19.30;99.90
59041;DHT22;44825;53.200;6.448;2022-08-03T03:16:20;19.30;99.90
59041;DHT22;44825;53.200;6.448;2022-08-03T03:18:48;19.30;99.90
59041;DHT22;44825;53.200;6.448;2022-08-03T03:21:18;19.20;99.90
59041;DHT22;44825;53.200;6.448;2022-08-03T03:23:46;19.30;99.90
59041;DHT22;44825;53.200;6.448;2022-08-03T03:26:15;19.20;99.90
59041;DHT22;44825;53.200;6.448;2022-08-03T03:28:43;19.30;99.90
59041;DHT22;44825;53.200;6.448;2022-08-03T03:31:11;19.20;99.90
59041;DHT22;44825;53.200;6.448;2022-08-03T03:33:38;19.20;99.90
59041;DHT22;44825;53.200;6.448;2022-08-03T03:36:06;19.20;99.90
59041;DHT22;44825;53.200;6.448;2022-08-03T03:38:34;19.20;99.90
59041;DHT22;44825;53.200;6.448;2022-08-03T03:41:03;19.20;99.90
59041;DHT22;44825;53.200;6.448;2022-08-03T03:43:32;19.20;99.90
59041;DHT22;44825;53.200;6.448;2022-08-03T03:46:00;19.20;99.90
59041;DHT22;44825;53.200;6.448;2022-08-03T03:48:28;19.20;99.90
59041;DHT22;44825;53.200;6.448;2022-08-03T03:50:55;19.20;99.90
59041;DHT22;44825;53.200;6.448;2022-08-03T03:53:24;19.10;99.90
59041;DHT22;44825;53.200;6.448;2022-08-03T03:55:52;19.20;99.90
59041;DHT22;44825;53.200;6.448;2022-08-03T03:58:19;19.20;99.90
59041;DHT22;44825;53.200;6.448;2022-08-03T04:00:48;19.10;99.90
59041;DHT22;44825;53.200;6.448;2022-08-03T04:03:15;19.10;99.90
59041;DHT22;44825;53.200;6.448;2022-08-03T04:05:43;19.10;99.90
59041;DHT22;44825;53.200;6.448;2022-08-03T04:08:28;19.10;99.90
59041;DHT22;44825;53.200;6.448;2022-08-03T04:11:15;19.10;99.90
59041;DHT22;44825;53.200;6.448;2022-08-03T04:13:49;19.10;99.90
59041;DHT22;44825;53.200;6.448;2022-08-03T04:16:21;19.10;99.90
59041;DHT22;44825;53.200;6.448;2022-08-03T04:18:53;19.10;99.90
59041;DHT22;44825;53.200;6.448;2022-08-03T04:21:21;19.20;99.90
59041;DHT22;44825;53.200;6.448;2022-08-03T04:23:52;19.20;99.90
59041;DHT22;44825;53.200;6.448;2022-08-03T04:26:23;19.20;99.90
59041;DHT22;44825;53.200;6.448;2022-08-03T04:28:53;19.20;99.90
59041;DHT22;44825;53.200;6.448;2022-08-03T04:31:23;19.30;99.90
59041;DHT22;44825;53.200;6.448;2022-08-03T04:33:52;19.30;99.90
59041;DHT22;44825;53.200;6.448;2022-08-03T04:36:22;19.30;99.90
59041;DHT22;44825;53.200;6.448;2022-08-03T04:38:59;19.40;99.90
59041;DHT22;44825;53.200;6.448;2022-08-03T04:41:27;19.40;99.90
59041;DHT22;44825;53.200;6.448;2022-08-03T04:43:57;19.40;99.90
59041;DHT22;44825;53.200;6.448;2022-08-03T04:46:30;19.40;99.90
59041;DHT22;44825;53.200;6.448;2022-08-03T04:48:58;19.50;99.90
59041;DHT22;44825;53.200;6.448;2022-08-03T04:51:26;19.60;99.90
59041;DHT22;44825;53.200;6.448;2022-08-03T04:53:53;19.70;99.90
59041;DHT22;44825;53.200;6.448;2022-08-03T04:56:21;19.80;99.90
59041;DHT22;44825;53.200;6.448;2022-08-03T04:58:48;19.90;99.90
59041;DHT22;44825;53.200;6.448;2022-08-03T05:01:15;20.00;99.90
59041;DHT22;44825;53.200;6.448;2022-08-03T05:03:46;20.00;99.90
59041;DHT22;44825;53.200;6.448;2022-08-03T05:06:14;20.10;99.90
59041;DHT22;44825;53.200;6.448;2022-08-03T05:08:41;20.20;99.90
59041;DHT22;44825;53.200;6.448;2022-08-03T05:11:08;20.30;99.90
59041;DHT22;44825;53.200;6.448;2022-08-03T05:13:35;20.30;99.90
59041;DHT22;44825;53.200;6.448;2022-08-03T05:16:03;20.30;99.90
59041;DHT22;44825;53.200;6.448;2022-08-03T05:18:30;20.40;99.90
59041;DHT22;44825;53.200;6.448;2022-08-03T05:21:00;20.50;99.90
59041;DHT22;44825;53.200;6.448;2022-08-03T05:23:27;20.60;99.90
59041;DHT22;44825;53.200;6.448;2022-08-03T05:25:55;20.60;99.90
59041;DHT22;44825;53.200;6.448;2022-08-03T05:28:22;20.70;99.90
59041;DHT22;44825;53.200;6.448;2022-08-03T05:30:49;20.90;99.90
59041;DHT22;44825;53.200;6.448;2022-08-03T05:33:17;21.00;99.90
59041;DHT22;44825;53.200;6.448;2022-08-03T05:35:44;21.10;99.90
59041;DHT22;44825;53.200;6.448;2022-08-03T05:38:13;21.20;99.90
59041;DHT22;44825;53.200;6.448;2022-08-03T05:40:40;21.20;99.90
59041;DHT22;44825;53.200;6.448;2022-08-03T05:43:07;21.30;99.90
59041;DHT22;44825;53.200;6.448;2022-08-03T05:45:36;21.40;99.90
59041;DHT22;44825;53.200;6.448;2022-08-03T05:48:04;21.40;99.90
59041;DHT22;44825;53.200;6.448;2022-08-03T05:50:31;21.50;99.90
59041;DHT22;44825;53.200;6.448;2022-08-03T05:53:01;21.60;99.90
59041;DHT22;44825;53.200;6.448;2022-08-03T05:55:30;21.60;99.90
59041;DHT22;44825;53.200;6.448;2022-08-03T05:57:57;21.80;99.90
59041;DHT22;44825;53.200;6.448;2022-08-03T06:00:24;21.80;99.90
59041;DHT22;44825;53.200;6.448;2022-08-03T06:02:52;22.00;99.90
59041;DHT22;44825;53.200;6.448;2022-08-03T06:05:19;22.10;99.90
59041;DHT22;44825;53.200;6.448;2022-08-03T06:07:47;22.10;99.90
59041;DHT22;44825;53.200;6.448;2022-08-03T06:10:14;22.10;99.90
59041;DHT22;44825;53.200;6.448;2022-08-03T06:12:43;22.20;99.90
59041;DHT22;44825;53.200;6.448;2022-08-03T06:15:12;22.20;99.90
59041;DHT22;44825;53.200;6.448;2022-08-03T06:17:47;22.20;99.90
59041;DHT22;44825;53.200;6.448;2022-08-03T06:20:16;22.10;99.90
59041;DHT22;44825;53.200;6.448;2022-08-03T06:22:44;22.10;99.90
59041;DHT22;44825;53.200;6.448;2022-08-03T06:25:12;22.20;99.90
59041;DHT22;44825;53.200;6.448;2022-08-03T06:27:39;22.20;99.90
59041;DHT22;44825;53.200;6.448;2022-08-03T06:30:09;22.40;99.90
59041;DHT22;44825;53.200;6.448;2022-08-03T06:32:37;22.60;99.90
59041;DHT22;44825;53.200;6.448;2022-08-03T06:35:06;22.70;99.90
59041;DHT22;44825;53.200;6.448;2022-08-03T06:37:41;22.60;99.90
59041;DHT22;44825;53.200;6.448;2022-08-03T06:40:11;22.60;99.90
59041;DHT22;44825;53.200;6.448;2022-08-03T06:42:38;22.60;99.90
59041;DHT22;44825;53.200;6.448;2022-08-03T06:45:08;22.60;99.90
59041;DHT22;44825;53.200;6.448;2022-08-03T06:47:36;22.60;99.90
59041;DHT22;44825;53.200;6.448;2022-08-03T06:50:04;22.60;99.90
59041;DHT22;44825;53.200;6.448;2022-08-03T06:52:32;22.70;99.90
59041;DHT22;44825;53.200;6.448;2022-08-03T06:54:59;22.70;99.90
59041;DHT22;44825;53.200;6.448;2022-08-03T06:57:27;22.70;99.90
59041;DHT22;44825;53.200;6.448;2022-08-03T06:59:54;22.80;99.90
59041;DHT22;44825;53.200;6.448;2022-08-03T07:02:28;22.80;99.90
59041;DHT22;44825;53.200;6.448;2022-08-03T07:04:56;22.80;99.90
59041;DHT22;44825;53.200;6.448;2022-08-03T07:07:23;22.80;99.90
59041;DHT22;44825;53.200;6.448;2022-08-03T07:09:51;22.90;99.90
59041;DHT22;44825;53.200;6.448;2022-08-03T07:12:18;22.90;99.90
59041;DHT22;44825;53.200;6.448;2022-08-03T07:14:46;22.90;99.90
59041;DHT22;44825;53.200;6.448;2022-08-03T07:17:13;23.00;99.90
59041;DHT22;44825;53.200;6.448;2022-08-03T07:19:41;23.00;99.90
59041;DHT22;44825;53.200;6.448;2022-08-03T07:22:09;23.00;99.90
59041;DHT22;44825;53.200;6.448;2022-08-03T07:24:37;23.00;99.90
59041;DHT22;44825;53.200;6.448;2022-08-03T07:27:04;23.00;99.90
59041;DHT22;44825;53.200;6.448;2022-08-03T07:29:32;23.00;99.90
59041;DHT22;44825;53.200;6.448;2022-08-03T07:32:00;23.00;99.90
59041;DHT22;44825;53.200;6.448;2022-08-03T07:34:28;23.00;99.90
59041;DHT22;44825;53.200;6.448;2022-08-03T07:36:56;23.00;99.90
59041;DHT22;44825;53.200;6.448;2022-08-03T07:39:24;23.00;99.90
59041;DHT22;44825;53.200;6.448;2022-08-03T07:41:51;23.00;99.90
59041;DHT22;44825;53.200;6.448;2022-08-03T07:44:18;23.10;99.90
59041;DHT22;44825;53.200;6.448;2022-08-03T07:46:46;23.10;99.90
59041;DHT22;44825;53.200;6.448;2022-08-03T07:49:15;23.10;99.90
59041;DHT22;44825;53.200;6.448;2022-08-03T07:51:43;23.10;99.90
59041;DHT22;44825;53.200;6.448;2022-08-03T07:54:11;23.10;99.90
59041;DHT22;44825;53.200;6.448;2022-08-03T07:56:39;23.20;99.90
59041;DHT22;44825;53.200;6.448;2022-08-03T07:59:06;23.20;99.90
59041;DHT22;44825;53.200;6.448;2022-08-03T08:01:34;23.30;99.90
59041;DHT22;44825;53.200;6.448;2022-08-03T08:04:03;23.30;99.90
59041;DHT22;44825;53.200;6.448;2022-08-03T08:06:30;23.30;99.90
59041;DHT22;44825;53.200;6.448;2022-08-03T08:08:58;23.40;99.90
59041;DHT22;44825;53.200;6.448;2022-08-03T08:11:28;23.40;99.90
59041;DHT22;44825;53.200;6.448;2022-08-03T08:13:56;23.40;99.90
59041;DHT22;44825;53.200;6.448;2022-08-03T08:16:23;23.50;99.90
59041;DHT22;44825;53.200;6.448;2022-08-03T08:18:50;23.50;99.90
59041;DHT22;44825;53.200;6.448;2022-08-03T08:21:18;23.50;99.90
59041;DHT22;44825;53.200;6.448;2022-08-03T08:23:45;23.60;99.90
59041;DHT22;44825;53.200;6.448;2022-08-03T08:26:13;23.60;99.90
59041;DHT22;44825;53.200;6.448;2022-08-03T08:28:41;23.70;99.90
59041;DHT22;44825;53.200;6.448;2022-08-03T08:31:09;23.70;99.90
59041;DHT22;44825;53.200;6.448;2022-08-03T08:33:36;23.70;99.90
59041;DHT22;44825;53.200;6.448;2022-08-03T08:36:03;23.80;99.90
59041;DHT22;44825;53.200;6.448;2022-08-03T08:38:31;23.90;99.90
59041;DHT22;44825;53.200;6.448;2022-08-03T08:41:00;23.90;99.90
59041;DHT22;44825;53.200;6.448;2022-08-03T08:43:27;24.00;99.90
59041;DHT22;44825;53.200;6.448;2022-08-03T08:45:57;24.00;99.90
59041;DHT22;44825;53.200;6.448;2022-08-03T08:48:26;24.10;99.90
59041;DHT22;44825;53.200;6.448;2022-08-03T08:50:55;24.20;99.90
59041;DHT22;44825;53.200;6.448;2022-08-03T08:53:25;24.20;99.90
59041;DHT22;44825;53.200;6.448;2022-08-03T08:55:54;24.30;99.90
59041;DHT22;44825;53.200;6.448;2022-08-03T08:58:22;24.30;99.90
59041;DHT22;44825;53.200;6.448;2022-08-03T09:00:49;24.40;99.90
59041;DHT22;44825;53.200;6.448;2022-08-03T09:03:18;24.40;99.90
59041;DHT22;44825;53.200;6.448;2022-08-03T09:05:47;24.40;99.90
59041;DHT22;44825;53.200;6.448;2022-08-03T09:08:15;24.50;99.90
59041;DHT22;44825;53.200;6.448;2022-08-03T09:10:42;24.70;99.90
59041;DHT22;44825;53.200;6.448;2022-08-03T09:13:10;24.80;99.90
59041;DHT22;44825;53.200;6.448;2022-08-03T09:15:37;24.80;99.90
59041;DHT22;44825;53.200;6.448;2022-08-03T09:18:05;24.80;99.90
59041;DHT22;44825;53.200;6.448;2022-08-03T09:20:35;24.80;99.90
59041;DHT22;44825;53.200;6.448;2022-08-03T09:23:04;24.90;99.90
59041;DHT22;44825;53.200;6.448;2022-08-03T09:25:36;25.00;99.90
59041;DHT22;44825;53.200;6.448;2022-08-03T09:28:06;25.10;99.90
59041;DHT22;44825;53.200;6.448;2022-08-03T09:30:34;25.30;99.90
59041;DHT22;44825;53.200;6.448;2022-08-03T09:33:01;25.40;99.90
59041;DHT22;44825;53.200;6.448;2022-08-03T09:35:30;25.40;99.90
59041;DHT22;44825;53.200;6.448;2022-08-03T09:38:12;25.60;99.90
59041;DHT22;44825;53.200;6.448;2022-08-03T09:40:40;25.70;99.90
59041;DHT22;44825;53.200;6.448;2022-08-03T09:43:08;25.70;99.90
59041;DHT22;44825;53.200;6.448;2022-08-03T09:45:36;25.60;99.90
59041;DHT22;44825;53.200;6.448;2022-08-03T09:48:23;25.70;99.90
59041;DHT22;44825;53.200;6.448;2022-08-03T09:50:52;25.70;99.90
59041;DHT22;44825;53.200;6.448;2022-08-03T09:53:22;25.80;99.90
59041;DHT22;44825;53.200;6.448;2022-08-03T09:55:51;25.80;99.90
59041;DHT22;44825;53.200;6.448;2022-08-03T09:58:19;25.90;99.90
59041;DHT22;44825;53.200;6.448;2022-08-03T10:00:55;25.90;99.90
59041;DHT22;44825;53.200;6.448;2022-08-03T10:03:23;26.00;99.90
59041;DHT22;44825;53.200;6.448;2022-08-03T10:05:51;26.10;99.90
59041;DHT22;44825;53.200;6.448;2022-08-03T10:08:20;26.10;99.90
59041;DHT22;44825;53.200;6.448;2022-08-03T10:10:49;26.20;99.90
59041;DHT22;44825;53.200;6.448;2022-08-03T10:13:19;26.20;99.90
59041;DHT22;44825;53.200;6.448;2022-08-03T10:15:47;26.30;99.90
59041;DHT22;44825;53.200;6.448;2022-08-03T10:18:14;26.30;99.90
59041;DHT22;44825;53.200;6.448;2022-08-03T10:20:45;26.40;99.90
59041;DHT22;44825;53.200;6.448;2022-08-03T10:23:15;26.50;99.90
59041;DHT22;44825;53.200;6.448;2022-08-03T10:25:46;26.50;99.90
59041;DHT22;44825;53.200;6.448;2022-08-03T10:28:16;26.50;99.90
59041;DHT22;44825;53.200;6.448;2022-08-03T10:30:48;26.60;99.90
59041;DHT22;44825;53.200;6.448;2022-08-03T10:33:20;26.60;99.90
59041;DHT22;44825;53.200;6.448;2022-08-03T10:35:52;26.60;99.90
59041;DHT22;44825;53.200;6.448;2022-08-03T10:38:24;26.60;99.90
59041;DHT22;44825;53.200;6.448;2022-08-03T10:40:57;26.70;99.90
59041;DHT22;44825;53.200;6.448;2022-08-03T10:43:27;26.70;99.90
59041;DHT22;44825;53.200;6.448;2022-08-03T10:45:57;26.70;99.90
59041;DHT22;44825;53.200;6.448;2022-08-03T10:48:25;26.80;99.90
59041;DHT22;44825;53.200;6.448;2022-08-03T10:50:53;26.90;99.90
59041;DHT22;44825;53.200;6.448;2022-08-03T10:53:33;26.90;99.60
59041;DHT22;44825;53.200;6.448;2022-08-03T10:56:03;27.00;98.60
59041;DHT22;44825;53.200;6.448;2022-08-03T10:58:51;27.00;98.70
59041;DHT22;44825;53.200;6.448;2022-08-03T11:01:48;27.00;98.80
59041;DHT22;44825;53.200;6.448;2022-08-03T11:04:17;27.00;98.30
59041;DHT22;44825;53.200;6.448;2022-08-03T11:06:45;26.90;98.70
59041;DHT22;44825;53.200;6.448;2022-08-03T11:09:15;26.90;98.80
59041;DHT22;44825;53.200;6.448;2022-08-03T11:11:45;27.00;98.80
59041;DHT22;44825;53.200;6.448;2022-08-03T11:14:15;27.00;98.90
59041;DHT22;44825;53.200;6.448;2022-08-03T11:16:45;27.00;98.70
59041;DHT22;44825;53.200;6.448;2022-08-03T11:19:14;27.00;98.60
59041;DHT22;44825;53.200;6.448;2022-08-03T11:21:53;27.10;98.60
59041;DHT22;44825;53.200;6.448;2022-08-03T11:24:58;27.10;98.40
59041;DHT22;44825;53.200;6.448;2022-08-03T11:27:31;27.10;98.30
59041;DHT22;44825;53.200;6.448;2022-08-03T11:30:04;27.20;98.10
59041;DHT22;44825;53.200;6.448;2022-08-03T11:35:29;27.20;97.70
59041;DHT22;44825;53.200;6.448;2022-08-03T11:38:17;27.20;98.00
59041;DHT22;44825;53.200;6.448;2022-08-03T11:40:50;27.20;98.20
59041;DHT22;44825;53.200;6.448;2022-08-03T11:43:45;27.30;98.40
59041;DHT22;44825;53.200;6.448;2022-08-03T11:46:14;27.30;98.50
59041;DHT22;44825;53.200;6.448;2022-08-03T11:48:45;27.30;98.20
59041;DHT22;44825;53.200;6.448;2022-08-03T11:51:20;27.30;98.30
59041;DHT22;44825;53.200;6.448;2022-08-03T11:53:51;27.30;98.10
59041;DHT22;44825;53.200;6.448;2022-08-03T11:56:18;27.30;97.80
59041;DHT22;44825;53.200;6.448;2022-08-03T11:58:48;27.30;98.10
59041;DHT22;44825;53.200;6.448;2022-08-03T12:01:17;27.40;98.20
59041;DHT22;44825;53.200;6.448;2022-08-03T12:03:44;27.40;98.30
59041;DHT22;44825;53.200;6.448;2022-08-03T12:06:13;27.40;98.20
59041;DHT22;44825;53.200;6.448;2022-08-03T12:08:42;27.40;98.10
59041;DHT22;44825;53.200;6.448;2022-08-03T12:11:11;27.30;97.80
59041;DHT22;44825;53.200;6.448;2022-08-03T12:13:41;27.40;98.00
59041;DHT22;44825;53.200;6.448;2022-08-03T12:16:11;27.30;97.80
59041;DHT22;44825;53.200;6.448;2022-08-03T12:18:42;27.30;97.70
59041;DHT22;44825;53.200;6.448;2022-08-03T12:21:11;27.30;97.90
59041;DHT22;44825;53.200;6.448;2022-08-03T12:23:38;27.30;97.70
59041;DHT22;44825;53.200;6.448;2022-08-03T12:26:08;27.40;97.80
59041;DHT22;44825;53.200;6.448;2022-08-03T12:28:36;27.40;97.80
59041;DHT22;44825;53.200;6.448;2022-08-03T12:31:05;27.40;97.30
59041;DHT22;44825;53.200;6.448;2022-08-03T12:33:57;27.40;96.90
59041;DHT22;44825;53.200;6.448;2022-08-03T12:36:24;27.30;96.30
59041;DHT22;44825;53.200;6.448;2022-08-03T12:38:56;27.30;96.40
59041;DHT22;44825;53.200;6.448;2022-08-03T12:41:29;27.30;96.30
59041;DHT22;44825;53.200;6.448;2022-08-03T12:43:57;27.30;96.60
59041;DHT22;44825;53.200;6.448;2022-08-03T12:46:33;27.20;96.60
59041;DHT22;44825;53.200;6.448;2022-08-03T12:49:07;27.20;96.40
59041;DHT22;44825;53.200;6.448;2022-08-03T12:51:37;27.20;96.10
59041;DHT22;44825;53.200;6.448;2022-08-03T12:54:22;27.20;96.10
59041;DHT22;44825;53.200;6.448;2022-08-03T12:56:56;27.10;96.20
59041;DHT22;44825;53.200;6.448;2022-08-03T12:59:24;27.10;96.10
59041;DHT22;44825;53.200;6.448;2022-08-03T13:01:51;27.00;95.90
59041;DHT22;44825;53.200;6.448;2022-08-03T13:04:27;27.00;95.80
59041;DHT22;44825;53.200;6.448;2022-08-03T13:06:58;27.00;95.50
59041;DHT22;44825;53.200;6.448;2022-08-03T13:09:27;27.00;96.00
59041;DHT22;44825;53.200;6.448;2022-08-03T13:12:04;26.90;96.00
59041;DHT22;44825;53.200;6.448;2022-08-03T13:14:32;26.90;96.40
59041;DHT22;44825;53.200;6.448;2022-08-03T13:16:59;26.90;96.30
59041;DHT22;44825;53.200;6.448;2022-08-03T13:19:28;26.90;96.10
59041;DHT22;44825;53.200;6.448;2022-08-03T13:21:55;26.90;96.10
59041;DHT22;44825;53.200;6.448;2022-08-03T13:24:22;26.80;96.30
59041;DHT22;44825;53.200;6.448;2022-08-03T13:26:50;26.80;96.10
59041;DHT22;44825;53.200;6.448;2022-08-03T13:29:17;26.80;96.10
59041;DHT22;44825;53.200;6.448;2022-08-03T13:31:44;26.80;96.40
59041;DHT22;44825;53.200;6.448;2022-08-03T13:34:12;26.80;96.60
59041;DHT22;44825;53.200;6.448;2022-08-03T13:36:40;26.80;96.40
59041;DHT22;44825;53.200;6.448;2022-08-03T13:39:08;26.80;96.50
59041;DHT22;44825;53.200;6.448;2022-08-03T13:41:35;26.70;96.50
59041;DHT22;44825;53.200;6.448;2022-08-03T13:44:03;26.70;96.40
59041;DHT22;44825;53.200;6.448;2022-08-03T13:46:30;26.70;96.10
59041;DHT22;44825;53.200;6.448;2022-08-03T13:48:58;26.70;95.90
59041;DHT22;44825;53.200;6.448;2022-08-03T13:51:25;26.70;95.10
59041;DHT22;44825;53.200;6.448;2022-08-03T13:53:54;26.60;95.50
59041;DHT22;44825;53.200;6.448;2022-08-03T13:56:22;26.60;95.80
59041;DHT22;44825;53.200;6.448;2022-08-03T13:58:49;26.60;95.90
59041;DHT22;44825;53.200;6.448;2022-08-03T14:01:16;26.60;95.90
59041;DHT22;44825;53.200;6.448;2022-08-03T14:03:44;26.60;95.80
59041;DHT22;44825;53.200;6.448;2022-08-03T14:06:13;26.50;95.80
59041;DHT22;44825;53.200;6.448;2022-08-03T14:08:41;26.60;95.70
59041;DHT22;44825;53.200;6.448;2022-08-03T14:11:09;26.50;95.70
59041;DHT22;44825;53.200;6.448;2022-08-03T14:13:37;26.50;95.60
59041;DHT22;44825;53.200;6.448;2022-08-03T14:16:05;26.50;95.90
59041;DHT22;44825;53.200;6.448;2022-08-03T14:18:32;26.50;95.80
59041;DHT22;44825;53.200;6.448;2022-08-03T14:21:01;26.50;95.90
59041;DHT22;44825;53.200;6.448;2022-08-03T14:23:28;26.50;95.80
59041;DHT22;44825;53.200;6.448;2022-08-03T14:25:55;26.50;95.60
59041;DHT22;44825;53.200;6.448;2022-08-03T14:28:24;26.50;95.30
59041;DHT22;44825;53.200;6.448;2022-08-03T14:30:52;26.40;95.40
59041;DHT22;44825;53.200;6.448;2022-08-03T14:33:21;26.40;95.10
59041;DHT22;44825;53.200;6.448;2022-08-03T14:35:49;26.40;94.90
59041;DHT22;44825;53.200;6.448;2022-08-03T14:38:17;26.40;94.90
59041;DHT22;44825;53.200;6.448;2022-08-03T14:40:44;26.40;94.60
59041;DHT22;44825;53.200;6.448;2022-08-03T14:43:12;26.40;94.50
59041;DHT22;44825;53.200;6.448;2022-08-03T14:45:40;26.40;94.20
59041;DHT22;44825;53.200;6.448;2022-08-03T14:48:08;26.30;94.20
59041;DHT22;44825;53.200;6.448;2022-08-03T14:50:37;26.30;94.20
59041;DHT22;44825;53.200;6.448;2022-08-03T14:53:04;26.30;93.90
59041;DHT22;44825;53.200;6.448;2022-08-03T14:55:32;26.20;93.50
59041;DHT22;44825;53.200;6.448;2022-08-03T14:58:00;26.20;93.10
59041;DHT22;44825;53.200;6.448;2022-08-03T15:00:30;26.20;93.10
59041;DHT22;44825;53.200;6.448;2022-08-03T15:02:59;26.20;93.20
59041;DHT22;44825;53.200;6.448;2022-08-03T15:05:27;26.20;93.20
59041;DHT22;44825;53.200;6.448;2022-08-03T15:07:54;26.20;92.90
59041;DHT22;44825;53.200;6.448;2022-08-03T15:10:22;26.20;92.00
59041;DHT22;44825;53.200;6.448;2022-08-03T15:12:49;26.20;92.10
59041;DHT22;44825;53.200;6.448;2022-08-03T15:15:17;26.20;92.10
59041;DHT22;44825;53.200;6.448;2022-08-03T15:17:44;26.20;91.70
59041;DHT22;44825;53.200;6.448;2022-08-03T15:20:12;26.20;91.40
59041;DHT22;44825;53.200;6.448;2022-08-03T15:22:40;26.20;90.60
59041;DHT22;44825;53.200;6.448;2022-08-03T15:25:08;26.20;90.00
59041;DHT22;44825;53.200;6.448;2022-08-03T15:27:36;26.10;89.30
59041;DHT22;44825;53.200;6.448;2022-08-03T15:30:04;26.10;89.20
59041;DHT22;44825;53.200;6.448;2022-08-03T15:32:32;26.10;89.30
59041;DHT22;44825;53.200;6.448;2022-08-03T15:34:59;26.10;89.50
59041;DHT22;44825;53.200;6.448;2022-08-03T15:37:28;26.10;90.40
59041;DHT22;44825;53.200;6.448;2022-08-03T15:39:55;26.10;90.60
59041;DHT22;44825;53.200;6.448;2022-08-03T15:42:22;26.10;90.60
59041;DHT22;44825;53.200;6.448;2022-08-03T15:44:50;26.00;90.80
59041;DHT22;44825;53.200;6.448;2022-08-03T15:47:17;26.00;90.50